Time;durP1;ratioP1;P1;durP2;ratioP2;P2;SDS_P1;SDS_P2;PMS_P1;PMS_P2;Temp;Humidity;BMP_temperature;BMP_pressure;BME280_temperature;BME280_humidity;BME280_pressure;Samples;Min_cycle;Max_cycle;Signal;HPM_P1;HPM_P2
2021/06/26 00:00:07;;;;;;;0.10;0.10;;;;;;;19.45;67.17;101934.16;5031681;28;20029;-91
2021/06/26 00:02:39;;;;;;;0.10;0.10;;;;;;;19.45;67.15;101935.97;5009976;28;20030;-92
2021/06/26 00:05:10;;;;;;;0.00;0.00;;;;;;;19.36;67.12;101935.38;5036442;28;20057;-91
2021/06/26 00:07:38;;;;;;;0.10;0.10;;;;;;;19.31;66.98;101929.31;5035987;28;20103;-91
2021/06/26 00:10:07;;;;;;;0.20;0.20;;;;;;;19.28;66.91;101934.81;5036223;28;20044;-92
2021/06/26 00:12:34;;;;;;;0.15;0.15;;;;;;;19.23;66.90;101932.31;5036918;28;20037;-93
2021/06/26 00:15:01;;;;;;;0.10;0.10;;;;;;;19.20;66.81;101934.25;5036680;28;20033;-92
2021/06/26 00:17:28;;;;;;;0.03;0.03;;;;;;;19.17;66.82;101929.00;5037383;28;20029;-94
2021/06/26 00:19:54;;;;;;;0.10;0.10;;;;;;;19.13;66.90;101935.41;5022676;28;20069;-94
2021/06/26 00:22:21;;;;;;;0.22;0.22;;;;;;;19.10;66.99;101939.09;5033319;28;20029;-93
2021/06/26 00:24:47;;;;;;;0.10;0.10;;;;;;;19.08;67.03;101940.97;5036256;28;20419;-94
2021/06/26 00:27:13;;;;;;;0.30;0.30;;;;;;;19.06;67.17;101946.38;5036902;28;20029;-95
2021/06/26 00:29:40;;;;;;;0.10;0.10;;;;;;;19.06;67.18;101935.63;5037729;28;20033;-95
2021/06/26 00:32:06;;;;;;;0.00;0.00;;;;;;;19.07;67.17;101942.78;5019359;28;20038;-95
2021/06/26 00:34:33;;;;;;;0.10;0.10;;;;;;;19.08;67.25;101944.53;5017728;28;20030;-95
2021/06/26 00:36:59;;;;;;;0.00;0.00;;;;;;;19.08;67.17;101944.53;5027219;28;20432;-91
2021/06/26 00:39:26;;;;;;;0.00;0.00;;;;;;;19.07;67.17;101944.59;5008350;28;20061;-92
2021/06/26 00:41:52;;;;;;;0.10;0.10;;;;;;;19.05;67.41;101943.75;5028876;28;20033;-92
2021/06/26 00:44:18;;;;;;;0.05;0.05;;;;;;;19.03;67.34;101941.16;5018498;28;20057;-92
2021/06/26 00:46:45;;;;;;;0.95;0.95;;;;;;;19.03;67.44;101941.16;5030564;28;20029;-92
2021/06/26 00:49:11;;;;;;;1.25;1.13;;;;;;;19.05;67.39;101938.38;5022666;28;20040;-92
2021/06/26 00:51:38;;;;;;;0.05;0.05;;;;;;;19.03;67.78;101949.19;5029505;28;20075;-90
2021/06/26 00:54:04;;;;;;;5.97;1.55;;;;;;;19.05;67.68;101947.34;5020340;28;20030;-91
2021/06/26 00:56:31;;;;;;;0.28;0.28;;;;;;;19.10;67.62;101946.28;5035801;28;20068;-92
2021/06/26 00:58:57;;;;;;;0.08;0.08;;;;;;;19.11;67.60;101945.34;5035638;28;20115;-91
2021/06/26 01:01:24;;;;;;;0.10;0.10;;;;;;;19.11;67.73;101946.22;5032866;28;20053;-91
2021/06/26 01:03:50;;;;;;;0.00;0.00;;;;;;;19.13;67.79;101949.72;5024602;28;20034;-92
2021/06/26 01:06:18;;;;;;;0.13;0.13;;;;;;;19.12;67.96;101950.66;5031272;28;20044;-91
2021/06/26 01:08:45;;;;;;;0.00;0.00;;;;;;;19.14;67.97;101956.88;5018190;28;20034;-90
2021/06/26 01:11:12;;;;;;;0.10;0.10;;;;;;;19.16;68.07;101956.78;5034717;28;20057;-89
2021/06/26 01:13:38;;;;;;;0.10;0.10;;;;;;;19.21;68.10;101952.13;5034124;28;20472;-91
2021/06/26 01:16:05;;;;;;;0.10;0.10;;;;;;;19.20;68.27;101958.41;5034977;28;20025;-90
2021/06/26 01:18:32;;;;;;;0.60;0.60;;;;;;;19.26;68.00;101950.13;5034138;28;20473;-91
2021/06/26 01:20:58;;;;;;;0.22;0.22;;;;;;;19.29;67.82;101951.81;5022859;28;20034;-90
2021/06/26 01:23:26;;;;;;;0.98;0.65;;;;;;;19.27;68.30;101954.56;5015835;28;20470;-92
2021/06/26 01:25:53;;;;;;;0.00;0.00;;;;;;;19.28;68.36;101956.31;5027095;28;20029;-91
2021/06/26 01:28:20;;;;;;;0.10;0.10;;;;;;;19.27;68.55;101954.56;5017344;28;20057;-90
2021/06/26 01:30:47;;;;;;;0.68;0.68;;;;;;;19.23;69.01;101958.31;5029163;28;20420;-89
2021/06/26 01:33:15;;;;;;;0.10;0.10;;;;;;;19.32;68.36;101952.56;5022059;28;20052;-91
2021/06/26 01:35:41;;;;;;;0.40;0.40;;;;;;;19.30;68.46;101954.47;5026291;28;20029;-90
2021/06/26 01:38:07;;;;;;;0.30;0.30;;;;;;;19.35;68.37;101963.22;5033834;28;20132;-92
2021/06/26 01:40:34;;;;;;;0.10;0.10;;;;;;;19.35;68.45;101965.00;5033835;28;20038;-90
2021/06/26 01:43:00;;;;;;;0.10;0.10;;;;;;;19.35;68.38;101968.59;5033069;28;20077;-87
2021/06/26 01:45:27;;;;;;;0.45;0.45;;;;;;;19.30;68.64;101958.94;5034682;28;20040;-91
2021/06/26 01:47:56;;;;;;;0.68;0.68;;;;;;;19.27;68.83;101962.63;5035543;28;20030;-91
2021/06/26 01:50:25;;;;;;;0.52;0.52;;;;;;;19.34;68.37;101966.84;5018663;28;20496;-92
2021/06/26 01:52:51;;;;;;;0.30;0.30;;;;;;;19.34;68.47;101968.63;5016031;28;20037;-90
2021/06/26 01:55:20;;;;;;;0.88;0.88;;;;;;;19.37;68.57;101971.22;5025978;28;20026;-91
2021/06/26 01:57:48;;;;;;;0.10;0.10;;;;;;;19.43;68.20;101970.97;5026710;28;20034;-91
2021/06/26 02:00:16;;;;;;;1.77;0.52;;;;;;;19.45;68.24;101969.09;5033596;28;20480;-90
2021/06/26 02:02:44;;;;;;;0.55;0.55;;;;;;;19.48;68.16;101973.47;5019197;28;20027;-89
2021/06/26 02:05:12;;;;;;;0.20;0.20;;;;;;;19.49;68.11;101969.84;5009017;28;20504;-90
2021/06/26 02:07:38;;;;;;;0.13;0.13;;;;;;;19.49;68.04;101980.59;5025600;28;20040;-88
2021/06/26 02:10:07;;;;;;;0.10;0.10;;;;;;;19.51;68.12;101974.22;5018923;28;20030;-91
2021/06/26 02:12:33;;;;;;;0.00;0.00;;;;;;;19.53;67.90;101975.03;5030919;28;20056;-91
2021/06/26 02:15:00;;;;;;;0.30;0.30;;;;;;;19.52;68.20;101972.41;5019764;28;20029;-87
2021/06/26 02:17:27;;;;;;;0.73;0.38;;;;;;;19.55;68.16;101972.28;5023300;28;20056;-91
2021/06/26 02:19:54;;;;;;;0.22;0.20;;;;;;;19.54;68.02;101967.88;5009495;28;20042;-90
2021/06/26 02:22:20;;;;;;;0.98;0.98;;;;;;;19.55;68.03;101969.59;5018143;28;20033;-91
2021/06/26 02:24:47;;;;;;;0.98;0.55;;;;;;;19.52;68.13;101975.97;5035014;28;20033;-90
2021/06/26 02:27:14;;;;;;;0.10;0.10;;;;;;;19.52;68.06;101977.78;5027166;28;20030;-91
2021/06/26 02:29:40;;;;;;;1.02;1.02;;;;;;;19.50;68.05;101985.03;5026261;28;20032;-89
2021/06/26 02:32:07;;;;;;;1.25;1.25;;;;;;;19.54;68.01;101981.31;5019600;28;20384;-91
2021/06/26 02:34:34;;;;;;;0.15;0.15;;;;;;;19.52;67.91;101975.09;5030461;28;20028;-91
2021/06/26 02:37:02;;;;;;;3.30;1.40;;;;;;;19.51;68.10;101982.28;5020049;28;20439;-92
2021/06/26 02:39:28;;;;;;;0.17;0.17;;;;;;;19.53;68.00;101976.84;5023555;28;20022;-93
2021/06/26 02:41:55;;;;;;;0.10;0.10;;;;;;;19.53;67.99;101974.19;5028793;28;20453;-91
2021/06/26 02:44:21;;;;;;;0.40;0.40;;;;;;;19.52;68.32;101975.09;5016857;28;20026;-93
2021/06/26 02:46:49;;;;;;;0.52;0.40;;;;;;;19.51;68.10;101971.53;5029596;28;20053;-90
2021/06/26 02:49:15;;;;;;;0.30;0.30;;;;;;;19.52;67.94;101965.22;5025840;28;20033;-93
2021/06/26 02:51:42;;;;;;;0.28;0.28;;;;;;;19.52;67.94;101961.66;5025491;28;20052;-93
2021/06/26 02:54:08;;;;;;;0.50;0.50;;;;;;;19.54;67.79;101962.50;5034624;28;20025;-92
2021/06/26 02:56:34;;;;;;;0.20;0.20;;;;;;;19.53;67.92;101961.59;5020422;28;20105;-93
2021/06/26 02:59:01;;;;;;;0.10;0.10;;;;;;;19.55;68.01;101957.03;5013776;28;20033;-93
2021/06/26 03:01:27;;;;;;;0.03;0.03;;;;;;;19.52;68.00;101959.84;5027553;28;20026;-93
2021/06/26 03:03:53;;;;;;;0.88;0.85;;;;;;;19.50;68.12;101971.59;5024231;28;20536;-93
2021/06/26 03:06:19;;;;;;;0.82;0.82;;;;;;;19.49;67.98;101975.22;5035361;28;20507;-93
2021/06/26 03:08:46;;;;;;;0.50;0.50;;;;;;;19.50;67.85;101976.97;5021599;28;20076;-91
2021/06/26 03:11:12;;;;;;;1.02;0.65;;;;;;;19.49;67.82;101969.84;5029033;28;20029;-92
2021/06/26 03:13:38;;;;;;;0.40;0.40;;;;;;;19.52;67.95;101975.09;5012183;28;20049;-94
2021/06/26 03:16:05;;;;;;;0.55;0.55;;;;;;;19.48;68.20;101978.84;5023464;28;20390;-93
2021/06/26 03:18:31;;;;;;;0.65;0.65;;;;;;;19.50;68.16;101982.34;5077920;22;20127;-82
2021/06/26 03:20:57;;;;;;;0.20;0.20;;;;;;;19.49;68.01;101983.28;5076088;28;20115;-81
2021/06/26 03:23:24;;;;;;;0.50;0.50;;;;;;;19.50;67.99;101974.28;5076549;28;20032;-82
2021/06/26 03:25:50;;;;;;;1.27;1.13;;;;;;;19.50;68.07;101966.22;5075932;28;20035;-83
2021/06/26 03:28:17;;;;;;;1.45;0.80;;;;;;;19.55;67.69;101969.59;5076159;28;20100;-82
2021/06/26 03:30:43;;;;;;;0.10;0.10;;;;;;;19.54;68.15;101970.56;5075804;28;20081;-82
2021/06/26 03:33:10;;;;;;;0.47;0.47;;;;;;;19.54;68.27;101962.50;5076111;28;20060;-83
2021/06/26 03:35:36;;;;;;;0.35;0.35;;;;;;;19.56;68.10;101971.34;5075721;28;20025;-82
2021/06/26 03:38:02;;;;;;;11.68;1.08;;;;;;;19.55;68.24;101974.97;5075667;28;20025;-82
2021/06/26 03:40:29;;;;;;;0.70;0.70;;;;;;;19.50;68.30;101974.28;5057302;28;20032;-82
2021/06/26 03:42:55;;;;;;;0.10;0.10;;;;;;;19.50;68.36;101974.28;5076040;28;20036;-82
2021/06/26 03:45:21;;;;;;;0.20;0.20;;;;;;;19.53;68.17;101975.03;5075422;28;20025;-82
2021/06/26 03:47:48;;;;;;;0.15;0.15;;;;;;;19.44;68.79;101971.84;5075793;28;20363;-82
2021/06/26 03:50:14;;;;;;;0.10;0.10;;;;;;;19.49;68.54;101972.53;5075657;28;20098;-82
2021/06/26 03:52:40;;;;;;;0.20;0.20;;;;;;;19.52;68.43;101977.78;5075648;28;20082;-83
2021/06/26 03:55:07;;;;;;;0.85;0.85;;;;;;;19.48;68.83;101974.34;5075275;28;20067;-83
2021/06/26 03:57:33;;;;;;;0.73;0.70;;;;;;;19.50;68.52;101977.84;5075194;28;20112;-82
2021/06/26 04:00:00;;;;;;;0.45;0.45;;;;;;;19.43;69.25;101981.72;5075476;28;20036;-82
2021/06/26 04:02:26;;;;;;;0.10;0.10;;;;;;;19.56;68.48;101982.09;5075415;28;20064;-82
2021/06/26 04:04:52;;;;;;;0.25;0.25;;;;;;;19.59;68.68;101986.47;5075114;28;20034;-82
2021/06/26 04:07:18;;;;;;;0.10;0.10;;;;;;;19.62;68.55;101987.22;5074948;28;20025;-82
2021/06/26 04:09:44;;;;;;;1.10;1.10;;;;;;;19.63;68.80;101986.31;5075274;28;20437;-82
2021/06/26 04:12:10;;;;;;;0.63;0.63;;;;;;;19.65;68.58;101984.44;5074945;28;20040;-82
2021/06/26 04:14:37;;;;;;;1.33;1.00;;;;;;;19.66;68.50;101983.47;5074920;28;20081;-82
2021/06/26 04:17:03;;;;;;;0.85;0.82;;;;;;;19.66;68.81;101980.78;5074953;28;20036;-82
2021/06/26 04:19:29;;;;;;;0.70;0.50;;;;;;;19.67;68.73;101982.53;5074524;28;20039;-82
2021/06/26 04:21:55;;;;;;;1.10;1.10;;;;;;;19.72;68.58;101979.69;5074815;28;20111;-82
2021/06/26 04:24:22;;;;;;;0.60;0.60;;;;;;;19.76;68.73;101981.28;5074788;28;20029;-82
2021/06/26 04:26:48;;;;;;;0.20;0.20;;;;;;;19.83;68.67;101984.66;5074881;28;20028;-82
2021/06/26 04:29:15;;;;;;;1.08;1.00;;;;;;;19.83;68.78;101995.41;5075136;28;20028;-82
2021/06/26 04:31:41;;;;;;;0.47;0.47;;;;;;;19.86;68.60;101989.91;5074605;28;20032;-82
2021/06/26 04:34:07;;;;;;;0.10;0.10;;;;;;;19.91;68.31;101989.72;5056668;28;20387;-82
2021/06/26 04:36:33;;;;;;;3.35;1.05;;;;;;;19.92;68.56;101983.41;5074483;28;20044;-82
2021/06/26 04:39:00;;;;;;;0.55;0.55;;;;;;;19.98;68.10;101978.63;5074637;28;20029;-82
2021/06/26 04:41:27;;;;;;;0.40;0.40;;;;;;;19.98;68.19;101983.16;5074555;28;20472;-82
2021/06/26 04:43:54;;;;;;;0.70;0.68;;;;;;;20.02;68.00;101985.63;5074124;28;20391;-82
2021/06/26 04:46:20;;;;;;;2.22;1.13;;;;;;;20.04;68.18;101988.28;5074252;28;20016;-82
2021/06/26 04:48:46;;;;;;;0.10;0.10;;;;;;;20.09;68.19;101993.44;5089714;22;20048;-90
2021/06/26 04:51:12;;;;;;;0.73;0.73;;;;;;;20.05;68.34;101990.03;5074873;28;20036;-91
2021/06/26 04:53:40;;;;;;;0.20;0.20;;;;;;;20.07;68.15;101989.97;5076278;28;20028;-93
2021/06/26 04:56:06;;;;;;;0.52;0.50;;;;;;;20.07;68.25;101982.75;5074680;28;20029;-91
2021/06/26 04:58:33;;;;;;;0.80;0.80;;;;;;;20.11;68.06;101978.13;5074992;28;20036;-89
2021/06/26 05:01:00;;;;;;;0.35;0.35;;;;;;;20.09;68.47;101980.00;5074793;28;20028;-91
2021/06/26 05:03:26;;;;;;;0.47;0.47;;;;;;;20.10;68.18;101984.44;5075642;28;20039;-92
2021/06/26 05:05:52;;;;;;;0.03;0.03;;;;;;;20.09;68.21;101980.00;5075486;28;20029;-92
2021/06/26 05:08:19;;;;;;;0.90;0.90;;;;;;;20.09;68.04;101986.28;5074869;28;20021;-91
2021/06/26 05:10:45;;;;;;;0.52;0.52;;;;;;;20.07;68.08;101984.59;5074548;28;20051;-93
2021/06/26 05:13:11;;;;;;;0.93;0.93;;;;;;;20.08;68.10;101986.34;5075539;28;20020;-93
2021/06/26 05:15:39;;;;;;;0.47;0.47;;;;;;;20.06;68.53;101996.28;5075154;28;20029;-93
2021/06/26 05:18:05;;;;;;;0.65;0.65;;;;;;;20.08;68.37;101989.03;5074583;28;20047;-93
2021/06/26 05:20:31;;;;;;;2.03;1.92;;;;;;;20.10;68.32;101988.03;5074735;28;20029;-87
2021/06/26 05:22:57;;;;;;;0.50;0.50;;;;;;;19.97;68.93;101987.63;5075404;28;20462;-92
2021/06/26 05:25:23;;;;;;;2.55;2.35;;;;;;;20.11;68.66;101994.28;5075195;28;20028;-93
2021/06/26 05:27:50;;;;;;;0.40;0.40;;;;;;;20.20;68.51;101980.44;5075310;28;20036;-90
2021/06/26 05:30:16;;;;;;;0.77;0.77;;;;;;;20.21;68.46;101990.25;5075950;28;20024;-91
2021/06/26 05:32:42;;;;;;;0.93;0.93;;;;;;;20.29;68.53;101990.81;5076194;28;20463;-92
2021/06/26 05:35:09;;;;;;;0.38;0.38;;;;;;;20.39;68.42;101985.00;5075227;28;20024;-90
2021/06/26 05:37:35;;;;;;;0.63;0.63;;;;;;;20.45;67.94;101987.44;5074675;28;20115;-93
2021/06/26 05:40:01;;;;;;;0.52;0.52;;;;;;;20.51;68.04;101988.06;5075349;28;20071;-92
2021/06/26 05:42:27;;;;;;;3.25;0.70;;;;;;;20.56;67.97;101985.19;5074434;28;20029;-90
2021/06/26 05:44:53;;;;;;;2.13;2.03;;;;;;;20.52;67.49;101991.63;5075341;28;20421;-93
2021/06/26 05:47:19;;;;;;;0.40;0.40;;;;;;;20.63;67.55;101991.16;5076635;28;20120;-94
2021/06/26 05:49:46;;;;;;;1.10;0.63;;;;;;;20.68;67.52;101995.38;5075455;28;20028;-90
2021/06/26 05:52:12;;;;;;;0.30;0.30;;;;;;;20.61;67.68;101988.53;5074359;28;20033;-92
2021/06/26 05:54:38;;;;;;;0.20;0.20;;;;;;;20.73;67.62;101988.97;5074598;28;20375;-91
2021/06/26 05:57:04;;;;;;;1.50;1.45;;;;;;;20.78;67.17;101989.63;5057057;28;20123;-92
2021/06/26 05:59:30;;;;;;;0.32;0.32;;;;;;;20.83;67.12;101991.16;5077034;28;20035;-93
2021/06/26 06:01:57;;;;;;;0.57;0.57;;;;;;;20.89;67.34;101989.16;5074083;28;20027;-89
2021/06/26 06:04:23;;;;;;;0.50;0.50;;;;;;;20.98;66.99;101992.28;5074868;28;20032;-92
2021/06/26 06:06:49;;;;;;;0.45;0.45;;;;;;;21.04;67.21;101990.28;5074833;28;20033;-91
2021/06/26 06:09:15;;;;;;;0.10;0.10;;;;;;;21.00;67.32;101989.53;5075670;28;20032;-93
2021/06/26 06:11:41;;;;;;;1.05;1.05;;;;;;;21.11;66.54;101994.41;5075472;28;20029;-91
2021/06/26 06:14:09;;;;;;;0.60;0.60;;;;;;;21.14;66.73;101997.84;5076043;28;20025;-94
2021/06/26 06:16:37;;;;;;;1.35;0.82;;;;;;;21.22;66.16;101999.31;5075619;28;20137;-91
2021/06/26 06:19:03;;;;;;;0.60;0.60;;;;;;;21.23;66.12;101996.53;5076127;28;20028;-92
2021/06/26 06:21:29;;;;;;;0.30;0.30;;;;;;;21.33;65.60;102003.25;5075161;28;20088;-91
2021/06/26 06:23:55;;;;;;;0.80;0.80;;;;;;;21.45;66.16;102003.63;5079001;28;20169;-92
2021/06/26 06:26:21;;;;;;;1.30;0.95;;;;;;;21.40;64.82;102002.97;5078580;28;20043;-93
2021/06/26 06:28:47;;;;;;;1.02;1.02;;;;;;;21.52;65.28;102005.09;5077865;28;20035;-90
2021/06/26 06:31:15;;;;;;;0.95;0.95;;;;;;;21.68;64.79;102007.94;5078726;28;20028;-92
2021/06/26 06:33:41;;;;;;;0.32;0.32;;;;;;;21.80;64.22;102007.34;5077842;28;20029;-93
2021/06/26 06:36:07;;;;;;;1.23;1.23;;;;;;;21.80;64.76;102006.47;5077972;28;20033;-94
2021/06/26 06:38:34;;;;;;;0.88;0.88;;;;;;;21.94;63.97;101997.69;5078254;28;20028;-94
2021/06/26 06:41:01;;;;;;;0.57;0.57;;;;;;;21.99;63.96;102001.03;5078824;28;20028;-95
2021/06/26 06:43:27;;;;;;;0.40;0.40;;;;;;;22.07;63.92;102000.63;5080169;28;20357;-95
2021/06/26 06:45:54;;;;;;;0.90;0.85;;;;;;;22.00;62.42;101996.53;5079709;28;20024;-96
2021/06/26 06:48:23;;;;;;;0.52;0.43;;;;;;;22.21;63.48;101997.28;5079733;28;20597;-89
2021/06/26 06:50:50;;;;;;;1.60;1.50;;;;;;;22.08;64.04;102006.00;5079533;28;20029;-91
2021/06/26 06:53:17;;;;;;;1.00;0.77;;;;;;;22.16;63.96;102000.19;5081071;28;20111;-86
2021/06/26 06:55:43;;;;;;;1.85;1.75;;;;;;;22.27;63.65;101999.66;5061150;28;20032;-90
2021/06/26 06:58:10;;;;;;;5.22;1.48;;;;;;;22.28;63.65;101998.69;5042713;28;20028;-88
2021/06/26 07:00:36;;;;;;;0.32;0.32;;;;;;;22.40;63.26;101995.38;5077595;28;20028;-94
2021/06/26 07:03:02;;;;;;;0.75;0.70;;;;;;;22.50;63.20;101995.78;5060249;28;20046;-90
2021/06/26 07:05:29;;;;;;;6.13;1.55;;;;;;;22.65;63.07;101998.66;5080196;28;20402;-90
2021/06/26 07:07:57;;;;;;;0.75;0.75;;;;;;;22.64;62.16;101996.88;5083922;28;20108;-80
2021/06/26 07:10:25;;;;;;;0.47;0.47;;;;;;;22.56;62.15;102000.88;5064790;28;20037;-89
2021/06/26 07:13:27;;;;;;;1.13;1.13;;;;;;;22.92;61.98;101994.47;5095317;28;20154;-96
2021/06/26 07:15:54;;;;;;;0.25;0.22;;;;;;;22.92;60.83;101994.47;5090020;28;20139;-95
2021/06/26 07:18:21;;;;;;;0.15;0.15;;;;;;;23.05;61.36;101996.50;5065345;28;20052;-91
2021/06/26 07:20:47;;;;;;;2.45;2.00;;;;;;;23.11;61.15;101996.16;5073096;28;20032;-85
2021/06/26 07:23:14;;;;;;;0.80;0.80;;;;;;;23.03;61.15;101988.47;5067477;28;20044;-91
2021/06/26 07:25:40;;;;;;;0.60;0.60;;;;;;;22.85;59.96;101998.44;5064982;28;20025;-89
2021/06/26 07:28:06;;;;;;;0.57;0.57;;;;;;;22.82;60.92;102005.84;5065191;28;20109;-91
2021/06/26 07:30:33;;;;;;;1.58;1.48;;;;;;;22.76;61.05;101999.81;5066793;28;20016;-92
2021/06/26 07:32:59;;;;;;;0.20;0.20;;;;;;;22.81;60.82;101996.88;5067879;28;20037;-95
2021/06/26 07:35:25;;;;;;;1.80;1.35;;;;;;;22.74;60.71;102003.53;5069728;28;20043;-95
2021/06/26 07:37:57;;;;;;;1.08;0.98;;;;;;;22.87;61.43;102009.19;5067334;28;20043;-92
2021/06/26 07:40:25;;;;;;;0.50;0.50;;;;;;;22.88;61.56;102003.69;5059961;28;20128;-92
2021/06/26 07:42:53;;;;;;;0.98;0.98;;;;;;;22.90;61.58;101999.09;5078584;28;20028;-91
2021/06/26 07:45:22;;;;;;;0.30;0.30;;;;;;;22.85;61.32;102001.13;5081832;28;20468;-95
2021/06/26 07:47:48;;;;;;;0.20;0.20;;;;;;;23.09;61.31;101998.06;5082371;22;20044;-88
2021/06/26 07:50:17;;;;;;;0.17;0.17;;;;;;;23.19;60.73;101996.66;5029000;28;20041;-85
2021/06/26 07:52:44;;;;;;;0.75;0.75;;;;;;;23.33;60.18;101995.00;5028275;28;20040;-86
2021/06/26 07:55:11;;;;;;;0.32;0.32;;;;;;;23.30;60.94;101987.94;5035049;28;20091;-87
2021/06/26 07:57:37;;;;;;;0.40;0.40;;;;;;;23.57;58.91;101984.63;5019315;28;20063;-88
2021/06/26 08:00:07;;;;;;;0.82;0.82;;;;;;;23.71;59.77;101984.72;5037024;28;20035;-87
2021/06/26 08:02:34;;;;;;;0.10;0.10;;;;;;;23.83;57.77;101977.72;5035973;28;20075;-87
2021/06/26 08:05:00;;;;;;;0.60;0.60;;;;;;;23.86;59.22;101972.16;5034897;28;20033;-86
2021/06/26 08:07:26;;;;;;;0.73;0.73;;;;;;;24.00;58.76;101975.88;5035529;28;20368;-88
2021/06/26 08:09:55;;;;;;;1.30;0.70;;;;;;;24.04;58.95;101974.75;5036221;28;20113;-89
2021/06/26 08:12:23;;;;;;;0.30;0.30;;;;;;;24.01;56.98;101973.09;5032893;28;20504;-88
2021/06/26 08:14:49;;;;;;;0.57;0.57;;;;;;;24.10;59.20;101968.97;5019273;28;20041;-89
2021/06/26 08:17:16;;;;;;;1.50;1.40;;;;;;;24.14;57.20;101975.06;5036454;28;20535;-87
2021/06/26 08:19:42;;;;;;;0.75;0.75;;;;;;;24.31;56.96;101972.25;5001363;28;20495;-87
2021/06/26 08:22:08;;;;;;;0.63;0.63;;;;;;;24.33;58.08;101980.25;5035326;28;20107;-86
2021/06/26 08:24:36;;;;;;;0.55;0.55;;;;;;;24.55;57.35;101969.84;5017894;28;20052;-87
2021/06/26 08:27:02;;;;;;;0.28;0.28;;;;;;;24.53;57.58;101966.34;5035001;28;20111;-86
2021/06/26 08:29:29;;;;;;;0.10;0.10;;;;;;;24.65;56.64;101969.31;5034887;28;20029;-83
2021/06/26 08:31:55;;;;;;;1.27;1.27;;;;;;;24.72;56.24;101970.69;5034781;28;20087;-89
2021/06/26 08:34:21;;;;;;;0.55;0.55;;;;;;;24.74;56.34;101970.59;5035307;28;20029;-85
2021/06/26 08:36:50;;;;;;;1.55;0.55;;;;;;;24.79;56.40;101977.47;5034790;28;20033;-84
2021/06/26 08:39:20;;;;;;;0.10;0.10;;;;;;;24.86;56.20;101973.41;5017685;28;20029;-83
2021/06/26 08:41:48;;;;;;;0.65;0.65;;;;;;;24.76;54.61;101980.38;5035176;28;20030;-85
2021/06/26 08:44:17;;;;;;;1.95;0.95;;;;;;;24.83;56.02;101981.72;5034712;28;20044;-85
2021/06/26 08:46:49;;;;;;;2.08;1.17;;;;;;;25.11;55.33;101982.69;5035183;28;20029;-90
2021/06/26 08:49:15;;;;;;;0.50;0.50;;;;;;;25.11;55.55;101982.69;5035378;28;20465;-90
2021/06/26 08:51:42;;;;;;;0.80;0.60;;;;;;;25.30;54.65;101973.38;5017549;28;20041;-90
2021/06/26 08:54:13;;;;;;;0.30;0.30;;;;;;;25.29;55.08;101986.06;5035641;28;20106;-91
2021/06/26 08:56:40;;;;;;;1.08;1.08;;;;;;;25.26;53.95;101979.97;5035017;28;20032;-91
2021/06/26 08:59:08;;;;;;;1.55;1.45;;;;;;;25.19;52.53;101977.63;5017315;28;20033;-92
2021/06/26 09:01:35;;;;;;;0.13;0.13;;;;;;;25.45;54.60;101979.69;5034212;28;20049;-90
2021/06/26 09:04:04;;;;;;;0.65;0.65;;;;;;;25.39;55.66;101980.94;5032374;28;20029;-85
2021/06/26 09:06:33;;;;;;;1.20;1.13;;;;;;;25.50;54.21;101986.53;5034047;28;20030;-85
2021/06/26 09:09:00;;;;;;;1.00;0.73;;;;;;;25.72;53.93;101982.44;5034128;28;20033;-86
2021/06/26 09:11:26;;;;;;;0.63;0.63;;;;;;;25.58;52.70;101979.75;5033983;28;20060;-84
2021/06/26 09:13:52;;;;;;;1.63;1.60;;;;;;;25.78;53.12;101982.03;5034164;28;20108;-84
2021/06/26 09:16:20;;;;;;;0.85;0.85;;;;;;;25.95;54.33;101977.28;5033369;28;20036;-85
2021/06/26 09:18:49;;;;;;;0.47;0.47;;;;;;;26.23;53.49;101976.31;5033815;28;20100;-86
2021/06/26 09:24:22;;;;;;;0.63;0.63;;;;;;;26.57;51.98;101979.41;5071103;28;20603;-87
2021/06/26 09:29:56;;;;;;;0.30;0.30;;;;;;;26.77;54.39;101980.75;5090704;28;20463;-81
2021/06/26 09:32:24;;;;;;;1.38;1.35;;;;;;;26.88;50.63;101976.38;5065368;28;20041;-82
2021/06/26 09:34:51;;;;;;;1.08;1.05;;;;;;;26.99;49.48;101976.47;5070557;28;20078;-85
2021/06/26 09:40:06;;;;;;;0.08;0.08;;;;;;;27.37;48.62;101978.25;5088493;28;20405;-84
2021/06/26 09:42:37;;;;;;;0.73;0.73;;;;;;;27.38;49.86;101985.44;5068909;28;20021;-87
2021/06/26 09:45:07;;;;;;;1.02;1.00;;;;;;;27.60;47.52;101979.31;5074724;28;20024;-87
2021/06/26 09:47:39;;;;;;;1.23;1.13;;;;;;;27.40;48.34;101983.53;5072945;28;20036;-90
2021/06/26 09:55:43;;;;;;;0.88;0.88;;;;;;;27.51;49.78;101984.56;5079180;28;20199;-86
2021/06/26 09:58:16;;;;;;;0.80;0.80;;;;;;;27.54;49.29;101984.34;5059426;28;20499;-82
2021/06/26 10:00:44;;;;;;;13.15;2.17;;;;;;;27.40;48.31;101980.81;5064852;28;20033;-87
2021/06/26 10:03:14;;;;;;;0.60;0.60;;;;;;;27.22;48.75;101980.25;5054771;28;20091;-84
2021/06/26 10:05:43;;;;;;;0.77;0.77;;;;;;;27.46;48.56;101976.75;5053845;28;20033;-85
2021/06/26 10:08:10;;;;;;;1.17;1.17;;;;;;;27.57;48.79;101967.78;5057934;28;20021;-85
2021/06/26 10:10:37;;;;;;;0.40;0.40;;;;;;;27.65;48.69;101962.63;5051873;28;20144;-84
2021/06/26 10:13:03;;;;;;;0.35;0.35;;;;;;;27.81;46.47;101972.38;5059227;28;20392;-85
2021/06/26 10:15:32;;;;;;;0.93;0.90;;;;;;;27.58;48.07;101970.38;5067913;28;20438;-80
2021/06/26 10:18:11;;;;;;;0.30;0.30;;;;;;;27.69;47.08;101966.88;5050758;28;20029;-82
2021/06/26 10:20:39;;;;;;;0.50;0.50;;;;;;;27.46;46.12;101975.88;5058993;28;20102;-81
2021/06/26 10:23:06;;;;;;;3.42;1.00;;;;;;;27.42;47.36;101967.94;5050514;28;20021;-82
2021/06/26 10:25:38;;;;;;;0.90;0.90;;;;;;;27.62;46.59;101968.31;5050524;28;20022;-80
2021/06/26 10:31:11;;;;;;;0.40;0.40;;;;;;;27.77;46.90;101958.97;5091088;27;20418;-83
2021/06/26 10:33:39;;;;;;;0.85;0.85;;;;;;;27.74;45.34;101959.22;5069764;28;20400;-79
2021/06/26 10:36:06;;;;;;;1.08;0.98;;;;;;;27.87;46.31;101959.13;5067317;28;20033;-82
2021/06/26 10:38:50;;;;;;;0.40;0.40;;;;;;;28.14;46.50;101959.88;5052072;28;20037;-81
2021/06/26 10:41:21;;;;;;;0.40;0.40;;;;;;;27.89;46.36;101964.50;5035990;28;20041;-82
2021/06/26 10:44:05;;;;;;;;;;;;;;;28.14;46.78;101959.88;5032891;28;20095;-81
2021/06/26 10:46:32;;;;;;;4.53;2.35;;;;;;;27.78;45.90;101965.31;5041174;28;19960;-81
2021/06/26 10:49:06;;;;;;;0.50;0.50;;;;;;;27.77;46.51;101964.41;5079078;22;20045;-92
2021/06/26 10:51:38;;;;;;;1.38;1.02;;;;;;;27.86;47.93;101962.84;5054095;28;20069;-90
2021/06/26 10:57:16;;;;;;;0.70;0.70;;;;;;;28.51;44.59;101947.00;5065429;28;20842;-92
2021/06/26 10:59:52;;;;;;;1.00;0.70;;;;;;;28.30;45.21;101949.56;5032621;28;20061;-89
2021/06/26 11:02:18;;;;;;;2.25;1.33;;;;;;;28.36;44.78;101953.66;5033338;28;20049;-89
2021/06/26 11:04:48;;;;;;;1.05;1.05;;;;;;;28.59;45.57;101954.56;5032572;28;20083;-92
2021/06/26 11:07:16;;;;;;;2.38;1.77;;;;;;;28.27;44.77;101960.69;5031905;28;20481;-92
2021/06/26 11:09:46;;;;;;;0.77;0.77;;;;;;;28.23;45.57;101951.03;5031602;28;20072;-92
2021/06/26 11:15:04;;;;;;;0.98;0.98;;;;;;;28.42;44.57;101947.72;5060220;28;20479;-91
2021/06/26 11:17:45;;;;;;;1.48;1.38;;;;;;;28.44;44.55;101951.19;5044087;28;20096;-91
2021/06/26 11:20:18;;;;;;;0.65;0.65;;;;;;;28.40;44.43;101947.84;5032540;28;20030;-90
2021/06/26 11:25:38;;;;;;;5.40;2.17;;;;;;;28.21;44.24;101951.16;5066585;28;20417;-86
2021/06/26 11:28:07;;;;;;;0.30;0.30;;;;;;;28.41;43.86;101957.75;5038639;28;20037;-81
2021/06/26 11:30:35;;;;;;;0.52;0.52;;;;;;;28.39;44.31;101948.81;5030970;28;20030;-83
2021/06/26 11:33:01;;;;;;;0.60;0.60;;;;;;;28.47;45.66;101950.94;5030065;28;20045;-80
2021/06/26 11:35:34;;;;;;;0.70;0.70;;;;;;;28.50;43.33;101949.81;5029658;28;20041;-79
2021/06/26 11:38:01;;;;;;;0.85;0.85;;;;;;;28.46;42.21;101946.47;5030466;28;20096;-83
2021/06/26 11:40:29;;;;;;;0.73;0.73;;;;;;;28.74;44.47;101947.03;5030409;28;20492;-92
2021/06/26 11:42:59;;;;;;;0.50;0.50;;;;;;;28.73;43.23;101951.63;5031539;28;20171;-89
2021/06/26 11:45:29;;;;;;;3.40;1.38;;;;;;;28.62;43.95;101946.13;5031709;28;20044;-91
2021/06/26 11:48:19;;;;;;;0.10;0.10;;;;;;;28.89;43.51;101939.50;5029715;28;20022;-89
2021/06/26 11:53:29;;;;;;;2.38;1.23;;;;;;;28.63;45.24;101949.72;5083993;27;20447;-90